HAZ11 RJTT-RJCC
Flight info
| Callsign | HAZ11 |
|---|---|
| Flight time | N/A |
| Altitude | 41000 |
| Route | BRUCE AGRIS Y11 SAMBO Y119 OHMAR Y13 SIRAO Y139 NAVER |
| Aircraft | A359/H-SDE2E3GHIJ3J4J5LM1ORWXY/LB1D1 |
Departure
| Time | 2026-05-04 05:47 |
|---|---|
| Airport | Tokyo Haneda International Airport (RJTT) |
Arrival
| Time | N/A |
|---|---|
| Airport | New Chitose Airport (RJCC) |
| Time | Latitude | Longitude | Altitude | Speed | Heading |
|---|---|---|---|---|---|
| 2026-05-04 05:47 | 35.60572 | 139.70845 | 6757 ft | 304 kts | 22° |
| 2026-05-04 05:47 | 35.62483 | 139.72018 | 7758 ft | 311 kts | 19° |
| 2026-05-04 05:47 | 35.64503 | 139.73122 | 8740 ft | 322 kts | 15° |
| 2026-05-04 05:48 | 35.66601 | 139.74123 | 9751 ft | 325 kts | 12° |
| 2026-05-04 05:48 | 35.68762 | 139.75040 | 10371 ft | 335 kts | 9° |
| 2026-05-04 05:48 | 35.71057 | 139.75926 | 10680 ft | 356 kts | 9° |
| 2026-05-04 05:48 | 35.73502 | 139.76825 | 10965 ft | 377 kts | 9° |
| 2026-05-04 05:49 | 35.76082 | 139.77774 | 11330 ft | 395 kts | 9° |
| 2026-05-04 05:49 | 35.78741 | 139.78777 | 11884 ft | 405 kts | 10° |
| 2026-05-04 05:49 | 35.81453 | 139.79820 | 12485 ft | 413 kts | 10° |
| 2026-05-04 05:49 | 35.84222 | 139.80898 | 13099 ft | 420 kts | 10° |
| 2026-05-04 05:51 | 36.04629 | 139.88858 | 16958 ft | 458 kts | 9° |
| 2026-05-04 05:51 | 36.07646 | 139.90034 | 17471 ft | 463 kts | 9° |
| 2026-05-04 05:52 | 36.10741 | 139.91240 | 17958 ft | 469 kts | 9° |
| 2026-05-04 05:52 | 36.13906 | 139.92476 | 18435 ft | 474 kts | 9° |
| 2026-05-04 05:52 | 36.17020 | 139.93691 | 18960 ft | 475 kts | 9° |
| 2026-05-04 05:52 | 36.20217 | 139.94525 | 19470 ft | 464 kts | 355° |
| 2026-05-04 05:53 | 36.23427 | 139.94788 | 20028 ft | 461 kts | 351° |
| 2026-05-04 05:54 | 36.46193 | 139.94221 | 23580 ft | 484 kts | 349° |
| 2026-05-04 05:55 | 36.49580 | 139.94353 | 23989 ft | 491 kts | 351° |
| 2026-05-04 05:55 | 36.52997 | 139.94546 | 24393 ft | 496 kts | 351° |
| 2026-05-04 05:55 | 36.56463 | 139.94755 | 24831 ft | 500 kts | 351° |
| 2026-05-04 05:55 | 36.59943 | 139.94954 | 25280 ft | 503 kts | 351° |
| 2026-05-04 05:56 | 36.63457 | 139.95137 | 25721 ft | 507 kts | 351° |
| 2026-05-04 05:56 | 36.66997 | 139.95305 | 26138 ft | 511 kts | 351° |
| 2026-05-04 05:56 | 36.70569 | 139.95463 | 26577 ft | 515 kts | 351° |
| 2026-05-04 05:56 | 36.74166 | 139.95618 | 27019 ft | 519 kts | 351° |
| 2026-05-04 05:57 | 36.77793 | 139.95772 | 27470 ft | 523 kts | 350° |
| 2026-05-04 05:57 | 36.81449 | 139.95926 | 27868 ft | 529 kts | 350° |
| 2026-05-04 05:57 | 36.85142 | 139.96089 | 28297 ft | 534 kts | 351° |
| 2026-05-04 05:57 | 36.88888 | 139.96622 | 28743 ft | 549 kts | 359° |
| 2026-05-04 05:58 | 36.92667 | 139.97454 | 29176 ft | 555 kts | 0° |
| 2026-05-04 05:58 | 36.96436 | 139.98375 | 29530 ft | 561 kts | 1° |
| 2026-05-04 05:58 | 37.00276 | 139.99367 | 29903 ft | 565 kts | 2° |
| 2026-05-04 05:58 | 37.04136 | 140.00387 | 30279 ft | 568 kts | 2° |
| 2026-05-04 05:59 | 37.08007 | 140.01421 | 30662 ft | 570 kts | 2° |
| 2026-05-04 05:59 | 37.11891 | 140.02447 | 30995 ft | 573 kts | 2° |
| 2026-05-04 05:59 | 37.15801 | 140.03468 | 31364 ft | 575 kts | 2° |
| 2026-05-04 05:59 | 37.19722 | 140.04484 | 31713 ft | 577 kts | 2° |
| 2026-05-04 06:00 | 37.23662 | 140.05503 | 32041 ft | 579 kts | 2° |
| 2026-05-04 06:00 | 37.27617 | 140.06524 | 32338 ft | 582 kts | 2° |
| 2026-05-04 06:00 | 37.31537 | 140.07538 | 32673 ft | 584 kts | 2° |
| 2026-05-04 06:00 | 37.35573 | 140.08584 | 33038 ft | 585 kts | 2° |
| 2026-05-04 06:01 | 37.39509 | 140.09608 | 33414 ft | 586 kts | 2° |
| 2026-05-04 06:01 | 37.43506 | 140.10647 | 33715 ft | 588 kts | 2° |
| 2026-05-04 06:03 | 37.71156 | 140.17883 | 34649 ft | 584 kts | 1° |
| 2026-05-04 06:03 | 37.75085 | 140.18907 | 34643 ft | 584 kts | 1° |
| 2026-05-04 06:05 | 38.11089 | 140.28395 | 34621 ft | 589 kts | 2° |
| 2026-05-04 06:06 | 38.19127 | 140.30529 | 34609 ft | 590 kts | 2° |
| 2026-05-04 06:06 | 38.27163 | 140.32668 | 34599 ft | 590 kts | 2° |
| 2026-05-04 06:07 | 38.35204 | 140.34812 | 34591 ft | 590 kts | 2° |
| 2026-05-04 06:07 | 38.43241 | 140.37027 | 34595 ft | 594 kts | 4° |
| 2026-05-04 06:08 | 38.51273 | 140.39621 | 34586 ft | 596 kts | 5° |
| 2026-05-04 06:08 | 38.59307 | 140.42308 | 34593 ft | 597 kts | 5° |
| 2026-05-04 06:09 | 38.67294 | 140.44929 | 34604 ft | 596 kts | 5° |
| 2026-05-04 06:11 | 38.98225 | 140.54950 | 34597 ft | 597 kts | 5° |
| 2026-05-04 06:13 | 39.30670 | 140.65575 | 34588 ft | 617 kts | 5° |
| 2026-05-04 06:14 | 39.59177 | 140.75031 | 34569 ft | 621 kts | 5° |
| 2026-05-04 06:15 | 39.67542 | 140.77820 | 34574 ft | 621 kts | 6° |
| 2026-05-04 06:15 | 39.75920 | 140.80617 | 34565 ft | 622 kts | 6° |
| 2026-05-04 06:16 | 39.84304 | 140.83420 | 34554 ft | 623 kts | 6° |
| 2026-05-04 06:16 | 39.92704 | 140.86243 | 34541 ft | 624 kts | 6° |